WATT/KOE METAR and TAF weather

Enter ICAO airport designator
Station Type Date Time Source
WATT METAR 2021/09/20 06:00 UTC NOAA

WATT 200600Z 11018KT 9999 FEW018 34/14 Q1009 NOSIG


Station Type Date Time Source
WATT Decoded METAR 2021/09/20 06:00 UTC NOAA

Station name not available
Sep 20, 2021 - 02:00 AM EDT / 2021.09.20 0600 UTC
Wind: from the ESE (110 degrees) at 21 MPH (18 KT):0
Visibility: greater than 7 mile(s):0
Sky conditions: mostly clear
Temperature: 93 F (34 C)
Dew Point: 57 F (14 C)
Relative Humidity: 30%
Pressure (altimeter): 29.80 in. Hg (1009 hPa)
ob: WATT 200600Z 11018KT 9999 FEW018 34/14 Q1009 NOSIG
cycle: 6

Station Type Date Time Source
WATT TAF 2021/09/20 06:00 UTC NOAA

TAF WATT 200500Z 2006/2106 10018G25KT 9999 FEW018
BECMG 2013/2015 12008KT

Example: see airport list